Time;durP1;ratioP1;P1;durP2;ratioP2;P2;SDS_P1;SDS_P2;PMS_P1;PMS_P2;Temp;Humidity;BMP_temperature;BMP_pressure;BME280_temperature;BME280_humidity;BME280_pressure;Samples;Min_cycle;Max_cycle;Signal;HPM_P1;HPM_P2
2023/01/27 00:02:08;;;;;;;16.35;10.48;;;4.10;99.90;;;;;;5075641;28;20216;-78
2023/01/27 00:04:35;;;;;;;15.85;9.57;;;4.10;99.90;;;;;;5072224;28;20701;-79
2023/01/27 00:07:03;;;;;;;18.65;10.65;;;4.10;99.90;;;;;;5067147;28;20286;-76
2023/01/27 00:09:30;;;;;;;14.25;9.63;;;4.10;99.90;;;;;;5072765;28;20220;-76
2023/01/27 00:14:41;;;;;;;14.23;8.63;;;4.10;99.90;;;;;;5065951;28;20226;-78
2023/01/27 00:17:08;;;;;;;12.98;9.15;;;4.10;99.90;;;;;;5079616;28;20218;-79
2023/01/27 00:19:35;;;;;;;13.40;8.45;;;4.10;99.90;;;;;;5075557;28;20251;-79
2023/01/27 00:24:50;;;;;;;14.93;9.45;;;4.10;99.90;;;;;;5048768;28;20223;-77
2023/01/27 00:27:18;;;;;;;17.65;10.75;;;4.00;99.90;;;;;;5073363;28;20224;-80
2023/01/27 00:29:45;;;;;;;15.98;9.82;;;4.00;99.90;;;;;;5074500;28;20224;-76
2023/01/27 00:34:56;;;;;;;16.38;9.70;;;4.00;99.90;;;;;;5073456;28;20270;-79
2023/01/27 00:37:24;;;;;;;15.63;9.82;;;4.00;99.90;;;;;;5075552;28;20223;-76
2023/01/27 00:39:52;;;;;;;14.30;8.48;;;4.00;99.90;;;;;;5072779;28;20223;-77
2023/01/27 00:42:19;;;;;;;18.40;10.00;;;4.00;99.90;;;;;;5074278;28;20224;-76
2023/01/27 00:47:28;;;;;;;18.08;11.93;;;4.00;99.90;;;;;;5072919;28;20292;-76
2023/01/27 00:49:55;;;;;;;16.85;8.60;;;4.00;99.90;;;;;;5073233;28;20552;-76
2023/01/27 00:52:28;;;;;;;14.65;9.18;;;4.00;99.90;;;;;;5065230;28;20220;-79
2023/01/27 00:54:56;;;;;;;16.63;10.00;;;4.00;99.90;;;;;;5074486;28;20228;-79
2023/01/27 00:57:23;;;;;;;15.32;9.00;;;4.00;99.90;;;;;;5074860;28;20228;-76
2023/01/27 00:59:50;;;;;;;14.85;8.40;;;3.90;99.90;;;;;;5073390;28;20224;-76
2023/01/27 01:02:17;;;;;;;15.30;10.18;;;4.00;99.90;;;;;;5067462;28;20235;-79
2023/01/27 01:04:44;;;;;;;14.88;9.48;;;4.00;99.90;;;;;;5033211;28;20224;-79
2023/01/27 01:07:11;;;;;;;17.50;9.88;;;4.00;99.90;;;;;;5075182;28;20246;-76
2023/01/27 01:09:39;;;;;;;17.13;10.73;;;4.00;99.90;;;;;;5072922;28;20297;-76
2023/01/27 01:12:06;;;;;;;14.75;9.52;;;4.00;99.90;;;;;;5073645;28;20391;-79
2023/01/27 01:14:34;;;;;;;16.77;9.85;;;4.10;99.90;;;;;;5068005;28;20228;-79
2023/01/27 01:17:01;;;;;;;17.10;9.93;;;4.00;99.90;;;;;;5067882;28;20302;-79
2023/01/27 01:19:30;;;;;;;18.30;9.45;;;4.00;99.90;;;;;;5071682;28;20236;-80
2023/01/27 01:22:02;;;;;;;15.30;9.23;;;4.00;99.90;;;;;;5068431;28;20239;-80
2023/01/27 01:24:29;;;;;;;16.20;9.80;;;4.00;99.90;;;;;;5074497;28;20228;-76
2023/01/27 01:26:58;;;;;;;17.95;10.30;;;3.90;99.90;;;;;;5073506;28;20281;-79
2023/01/27 01:29:25;;;;;;;18.83;10.50;;;4.00;99.90;;;;;;5073638;28;20228;-80
2023/01/27 01:31:52;;;;;;;18.85;10.18;;;4.00;99.90;;;;;;5073133;28;20220;-79
2023/01/27 01:34:19;;;;;;;19.38;10.48;;;4.00;99.90;;;;;;5074035;28;20285;-76
2023/01/27 01:36:46;;;;;;;19.40;10.48;;;3.90;99.90;;;;;;5071945;28;20234;-79
2023/01/27 01:39:13;;;;;;;14.88;9.68;;;3.90;99.90;;;;;;5054662;28;20217;-79
2023/01/27 01:41:40;;;;;;;15.55;10.40;;;3.90;99.90;;;;;;5069716;28;20250;-76
2023/01/27 01:44:24;;;;;;;16.08;9.00;;;3.90;99.90;;;;;;5073614;28;20674;-76
2023/01/27 01:46:51;;;;;;;19.02;10.95;;;3.90;99.90;;;;;;5071595;28;20224;-76
2023/01/27 01:49:23;;;;;;;16.35;10.15;;;3.90;99.90;;;;;;5072768;28;20234;-76
2023/01/27 01:51:57;;;;;;;16.80;9.38;;;3.90;99.90;;;;;;5059564;28;20247;-80
2023/01/27 01:54:28;;;;;;;17.70;11.05;;;4.00;99.90;;;;;;5073525;28;20227;-80
2023/01/27 01:57:02;;;;;;;21.38;12.10;;;4.00;99.90;;;;;;5072104;28;20224;-76
2023/01/27 01:59:35;;;;;;;17.27;9.90;;;3.90;99.90;;;;;;5061774;28;20232;-76
2023/01/27 02:02:07;;;;;;;19.27;10.30;;;4.00;99.90;;;;;;5073167;28;20273;-80
2023/01/27 02:04:39;;;;;;;17.05;9.65;;;3.90;99.90;;;;;;5072627;28;20235;-80
2023/01/27 02:07:11;;;;;;;17.83;10.02;;;3.90;99.90;;;;;;5069178;28;20251;-77
2023/01/27 02:09:39;;;;;;;13.32;9.18;;;3.90;99.90;;;;;;5061082;28;20224;-79
2023/01/27 02:12:07;;;;;;;17.17;9.57;;;3.90;99.90;;;;;;5072696;28;20239;-77
2023/01/27 02:14:35;;;;;;;14.57;8.70;;;4.00;99.90;;;;;;5052626;28;20699;-76
2023/01/27 02:17:04;;;;;;;16.50;8.50;;;3.90;99.90;;;;;;5067291;28;20315;-80
2023/01/27 02:19:43;;;;;;;11.82;7.30;;;3.90;99.90;;;;;;5074274;28;20646;-80
2023/01/27 02:22:23;;;;;;;12.40;7.78;;;3.90;99.90;;;;;;5073136;28;20220;-76
2023/01/27 02:24:55;;;;;;;13.55;7.75;;;3.90;99.90;;;;;;5074510;28;20223;-79
2023/01/27 02:27:24;;;;;;;12.93;8.10;;;4.00;99.90;;;;;;5073853;28;20293;-77
2023/01/27 02:29:52;;;;;;;13.27;8.88;;;4.00;99.90;;;;;;5070785;28;20223;-77
2023/01/27 02:32:24;;;;;;;13.15;7.70;;;4.00;99.90;;;;;;5072954;28;20661;-77
2023/01/27 02:34:52;;;;;;;11.63;7.43;;;4.00;99.90;;;;;;5072041;28;20246;-77
2023/01/27 02:37:20;;;;;;;13.27;7.80;;;4.10;99.90;;;;;;5073529;28;20235;-80
2023/01/27 02:39:52;;;;;;;10.57;8.02;;;4.10;99.90;;;;;;5072967;28;20685;-76
2023/01/27 02:42:20;;;;;;;12.57;8.20;;;4.10;99.90;;;;;;5064588;28;20212;-80
2023/01/27 02:44:48;;;;;;;11.23;7.25;;;4.10;99.90;;;;;;5072615;28;20224;-79
2023/01/27 02:47:16;;;;;;;8.55;6.90;;;4.10;99.90;;;;;;5077326;28;20234;-79
2023/01/27 02:49:43;;;;;;;9.82;7.38;;;4.10;99.90;;;;;;5074569;28;20228;-76
2023/01/27 02:52:10;;;;;;;11.10;8.32;;;4.10;99.90;;;;;;5076384;28;20223;-79
2023/01/27 02:54:37;;;;;;;10.77;7.70;;;4.10;99.90;;;;;;5078168;28;20216;-79
2023/01/27 02:57:04;;;;;;;9.13;6.85;;;4.10;99.90;;;;;;5081305;28;20323;-79
2023/01/27 02:59:31;;;;;;;11.75;8.02;;;4.10;99.90;;;;;;5073969;28;20269;-75
2023/01/27 03:02:00;;;;;;;10.40;7.57;;;4.10;99.90;;;;;;5063759;28;20667;-77
2023/01/27 03:04:27;;;;;;;9.82;7.00;;;4.10;99.90;;;;;;5061704;28;20219;-76
2023/01/27 03:06:54;;;;;;;11.60;8.10;;;4.10;99.90;;;;;;5074365;28;20228;-76
2023/01/27 03:09:21;;;;;;;11.77;7.65;;;4.20;99.90;;;;;;5073976;28;20247;-76
2023/01/27 03:20:03;;;;;;;10.05;6.95;;;4.10;99.90;;;;;;5080839;28;20254;-79
2023/01/27 03:22:30;;;;;;;10.93;7.93;;;4.10;99.90;;;;;;5085418;28;20250;-79
2023/01/27 03:25:00;;;;;;;11.05;7.95;;;4.10;99.90;;;;;;5086112;28;20236;-76
2023/01/27 03:27:27;;;;;;;11.60;6.95;;;4.10;99.90;;;;;;5074048;28;20319;-79
2023/01/27 03:29:55;;;;;;;11.70;6.68;;;4.10;99.90;;;;;;5078753;28;20223;-79
2023/01/27 03:32:24;;;;;;;13.30;8.60;;;4.20;99.90;;;;;;5074951;28;20287;-79
2023/01/27 03:34:53;;;;;;;14.50;8.05;;;4.20;99.90;;;;;;5073767;28;20269;-79
2023/01/27 03:48:23;;;;;;;14.20;8.38;;;4.20;99.90;;;;;;5057336;28;20232;-79
2023/01/27 03:50:55;;;;;;;11.70;6.53;;;4.20;99.90;;;;;;5056417;28;20229;-77
2023/01/27 03:53:22;;;;;;;10.77;7.57;;;4.20;99.90;;;;;;5055092;28;20228;-79
2023/01/27 03:55:49;;;;;;;9.38;7.30;;;4.20;99.90;;;;;;5055680;28;20278;-77
2023/01/27 03:58:22;;;;;;;9.60;6.47;;;4.20;99.90;;;;;;5055840;28;20311;-79
2023/01/27 04:00:53;;;;;;;9.93;6.82;;;4.20;99.90;;;;;;5055595;28;20259;-76
2023/01/27 04:08:55;;;;;;;12.75;6.55;;;4.20;99.90;;;;;;5055554;28;20227;-77
2023/01/27 04:14:08;;;;;;;11.48;7.30;;;4.20;99.90;;;;;;5055471;28;20526;-79
2023/01/27 04:16:35;;;;;;;12.98;7.10;;;4.20;99.90;;;;;;5056128;28;20550;-79
2023/01/27 04:19:03;;;;;;;9.00;5.72;;;4.30;99.90;;;;;;5054797;28;20313;-76
2023/01/27 04:21:32;;;;;;;12.35;7.05;;;4.30;99.90;;;;;;5055260;28;20304;-76
2023/01/27 04:24:00;;;;;;;13.18;7.30;;;4.30;99.90;;;;;;5044651;28;20233;-76
2023/01/27 04:26:32;;;;;;;11.70;6.95;;;4.30;99.90;;;;;;5055375;28;20610;-76
2023/01/27 04:28:59;;;;;;;9.82;6.90;;;4.30;99.90;;;;;;5054616;28;20256;-76
2023/01/27 04:31:27;;;;;;;12.93;6.65;;;4.30;99.90;;;;;;5054720;28;20687;-76
2023/01/27 04:33:54;;;;;;;8.30;5.60;;;4.30;99.90;;;;;;5055180;28;20557;-76
2023/01/27 04:36:21;;;;;;;9.73;6.55;;;4.30;99.90;;;;;;5055176;28;20225;-76
2023/01/27 04:38:50;;;;;;;8.27;5.63;;;4.30;99.90;;;;;;5055059;28;20251;-76
2023/01/27 04:41:17;;;;;;;8.38;5.63;;;4.40;99.90;;;;;;5055465;28;20307;-78
2023/01/27 04:43:47;;;;;;;8.20;5.80;;;4.40;99.90;;;;;;5055248;28;20592;-79
2023/01/27 04:46:17;;;;;;;8.27;5.25;;;4.40;99.90;;;;;;5054501;28;20290;-76
2023/01/27 04:48:44;;;;;;;9.15;6.18;;;4.40;99.90;;;;;;5054686;28;20216;-78
2023/01/27 04:51:11;;;;;;;7.45;5.30;;;4.40;99.90;;;;;;5054530;28;20228;-76
2023/01/27 04:53:39;;;;;;;9.50;5.95;;;4.40;99.90;;;;;;5054738;28;20274;-78
2023/01/27 04:56:18;;;;;;;9.05;4.97;;;4.40;99.90;;;;;;5054536;28;20304;-76
2023/01/27 04:58:45;;;;;;;6.80;4.60;;;4.40;99.90;;;;;;5054347;28;20221;-79
2023/01/27 05:01:13;;;;;;;6.97;4.95;;;4.40;99.90;;;;;;5043753;28;20256;-79
2023/01/27 05:03:39;;;;;;;9.55;5.38;;;4.40;99.90;;;;;;5052716;28;20618;-77
2023/01/27 05:06:07;;;;;;;9.02;5.22;;;4.40;99.90;;;;;;5054103;28;20287;-79
2023/01/27 05:08:34;;;;;;;8.68;5.65;;;4.40;99.90;;;;;;5057454;28;20231;-79
2023/01/27 05:11:02;;;;;;;9.13;5.55;;;4.40;99.90;;;;;;5054611;28;20697;-77
2023/01/27 05:13:30;;;;;;;7.72;5.45;;;4.40;99.90;;;;;;5055006;28;20736;-77
2023/01/27 05:16:09;;;;;;;7.55;5.28;;;4.40;99.90;;;;;;5055416;28;20235;-79
2023/01/27 05:18:36;;;;;;;10.65;6.00;;;4.40;99.90;;;;;;5055772;28;20309;-77
2023/01/27 05:21:05;;;;;;;10.25;6.82;;;4.50;99.90;;;;;;5053699;28;20751;-77
2023/01/27 05:23:37;;;;;;;7.28;5.07;;;4.50;99.90;;;;;;5054482;28;20232;-77
2023/01/27 05:26:08;;;;;;;8.57;5.80;;;4.50;99.90;;;;;;5053348;28;20247;-77
2023/01/27 05:28:42;;;;;;;9.98;6.85;;;4.50;99.90;;;;;;5054470;28;20220;-79
2023/01/27 05:31:12;;;;;;;13.77;7.25;;;4.50;99.90;;;;;;5053769;28;20255;-76
2023/01/27 05:33:40;;;;;;;12.82;7.20;;;4.60;99.90;;;;;;5053616;28;20779;-78
2023/01/27 05:36:10;;;;;;;11.25;7.43;;;4.60;99.90;;;;;;5052584;28;20234;-80
2023/01/27 05:38:37;;;;;;;12.20;6.28;;;4.60;99.90;;;;;;5054219;28;20730;-79
2023/01/27 05:41:06;;;;;;;9.48;6.57;;;4.60;99.90;;;;;;5052760;28;20316;-79
2023/01/27 05:43:35;;;;;;;11.38;6.43;;;4.60;99.90;;;;;;5053615;28;20225;-79
2023/01/27 05:46:06;;;;;;;6.70;5.18;;;4.50;99.90;;;;;;5053842;28;20286;-79
2023/01/27 05:48:35;;;;;;;9.73;5.80;;;4.50;99.90;;;;;;5054578;28;20221;-79
2023/01/27 05:51:03;;;;;;;12.52;7.93;;;4.60;99.90;;;;;;5053922;28;20229;-79
2023/01/27 05:53:34;;;;;;;11.65;5.72;;;4.60;99.90;;;;;;5054341;28;20228;-76
2023/01/27 05:56:01;;;;;;;9.88;6.63;;;4.60;99.90;;;;;;5045590;28;20301;-79
2023/01/27 05:58:28;;;;;;;10.55;7.40;;;4.60;99.90;;;;;;5053878;28;20732;-79
2023/01/27 06:01:06;;;;;;;11.50;7.15;;;4.60;99.90;;;;;;5054691;28;20495;-76
2023/01/27 06:03:33;;;;;;;11.63;7.60;;;4.60;99.90;;;;;;5053479;28;20266;-80
2023/01/27 06:05:59;;;;;;;9.20;6.93;;;4.60;99.90;;;;;;5053365;28;20557;-79
2023/01/27 06:08:27;;;;;;;9.95;6.20;;;4.60;99.90;;;;;;5051961;28;20601;-77
2023/01/27 06:10:58;;;;;;;13.55;7.38;;;4.60;99.90;;;;;;5053697;28;20244;-77
2023/01/27 06:13:25;;;;;;;8.43;6.25;;;4.60;99.90;;;;;;5053357;28;20297;-77
2023/01/27 06:15:59;;;;;;;9.40;6.80;;;4.60;99.90;;;;;;5053706;28;20274;-79
2023/01/27 06:18:30;;;;;;;10.15;6.78;;;4.60;99.90;;;;;;5042379;28;20216;-79
2023/01/27 06:21:00;;;;;;;11.52;6.88;;;4.60;99.90;;;;;;5053414;28;20638;-80
2023/01/27 06:23:30;;;;;;;8.48;6.20;;;4.60;99.90;;;;;;5052764;28;20229;-77
2023/01/27 06:26:04;;;;;;;6.78;5.35;;;4.60;99.90;;;;;;5042956;28;20572;-79
2023/01/27 06:28:34;;;;;;;7.65;4.93;;;4.60;99.90;;;;;;5052138;28;20315;-77
2023/01/27 06:31:09;;;;;;;8.75;6.70;;;4.60;99.90;;;;;;5052696;28;20228;-78
2023/01/27 06:33:41;;;;;;;8.57;5.65;;;4.70;99.90;;;;;;5052259;28;20297;-77
2023/01/27 06:36:15;;;;;;;10.15;6.65;;;4.70;99.90;;;;;;5052527;28;20231;-77
2023/01/27 06:38:45;;;;;;;9.32;4.95;;;4.70;99.90;;;;;;5055020;28;20213;-77
2023/01/27 06:41:15;;;;;;;9.13;6.50;;;4.70;99.90;;;;;;5041260;28;20296;-77
2023/01/27 06:43:52;;;;;;;8.57;5.22;;;4.70;99.90;;;;;;5054679;28;20255;-79
2023/01/27 06:46:22;;;;;;;8.80;5.18;;;4.70;99.90;;;;;;5053775;28;20232;-80
2023/01/27 06:48:56;;;;;;;7.55;5.13;;;4.70;99.90;;;;;;5053255;28;20221;-78
2023/01/27 06:51:26;;;;;;;8.18;5.03;;;4.70;99.90;;;;;;5051430;28;20236;-77
2023/01/27 06:53:56;;;;;;;10.20;6.72;;;4.70;99.90;;;;;;5043037;28;20239;-77
2023/01/27 06:56:26;;;;;;;8.38;4.90;;;4.70;99.90;;;;;;5052990;28;20395;-76
2023/01/27 06:58:56;;;;;;;7.53;5.90;;;4.80;99.90;;;;;;5053204;28;20225;-79
2023/01/27 07:01:26;;;;;;;6.13;5.20;;;4.80;99.90;;;;;;5051603;28;20224;-77
2023/01/27 07:03:57;;;;;;;8.73;5.63;;;4.80;99.90;;;;;;5052565;28;20567;-80
2023/01/27 07:06:27;;;;;;;8.63;6.07;;;4.80;99.90;;;;;;5052934;28;20267;-79
2023/01/27 07:08:59;;;;;;;10.50;6.22;;;4.80;99.90;;;;;;5054698;28;20325;-77
2023/01/27 07:11:29;;;;;;;12.50;6.75;;;4.80;99.90;;;;;;5052725;28;20552;-80
2023/01/27 07:14:02;;;;;;;13.25;8.15;;;4.80;99.90;;;;;;5053938;28;20229;-79
2023/01/27 07:16:34;;;;;;;10.25;8.35;;;4.80;99.90;;;;;;5053984;28;20216;-77
2023/01/27 07:19:05;;;;;;;13.50;7.50;;;4.80;99.90;;;;;;5051827;28;20229;-79
2023/01/27 07:21:39;;;;;;;11.50;8.57;;;4.80;99.90;;;;;;5051543;28;20269;-77
2023/01/27 07:24:14;;;;;;;14.05;8.15;;;4.80;99.90;;;;;;5052707;28;20247;-76
2023/01/27 07:26:46;;;;;;;13.05;8.55;;;4.80;99.90;;;;;;5051705;28;20257;-76
2023/01/27 07:29:17;;;;;;;12.60;8.40;;;4.80;99.90;;;;;;5052853;28;20303;-79
2023/01/27 07:31:51;;;;;;;11.23;7.43;;;4.90;99.90;;;;;;5051874;28;20220;-77
2023/01/27 07:34:23;;;;;;;15.82;8.07;;;4.90;99.90;;;;;;5051128;28;20231;-77
2023/01/27 07:36:58;;;;;;;13.77;10.50;;;4.90;99.90;;;;;;5051406;28;20658;-76
2023/01/27 07:39:28;;;;;;;15.80;9.75;;;4.80;99.90;;;;;;5055785;28;20224;-79
2023/01/27 07:42:00;;;;;;;14.68;8.93;;;4.90;99.90;;;;;;5056326;28;20286;-76
2023/01/27 07:44:30;;;;;;;17.58;9.27;;;4.90;99.90;;;;;;5055748;28;20350;-75
2023/01/27 07:47:11;;;;;;;15.52;10.20;;;4.80;99.90;;;;;;5057015;28;20241;-79
2023/01/27 07:49:45;;;;;;;16.50;9.02;;;4.80;99.90;;;;;;5057317;28;20232;-79
2023/01/27 07:52:15;;;;;;;12.68;8.05;;;4.80;99.90;;;;;;5064677;28;20228;-79
2023/01/27 07:54:49;;;;;;;12.60;8.45;;;4.90;99.90;;;;;;5054917;28;20223;-76
2023/01/27 07:57:23;;;;;;;12.80;7.90;;;4.90;99.90;;;;;;5059318;28;20266;-77
2023/01/27 07:59:55;;;;;;;14.35;9.25;;;5.00;99.90;;;;;;5054562;28;20360;-80
2023/01/27 08:02:25;;;;;;;12.25;8.32;;;5.00;99.90;;;;;;5055543;28;20317;-77
2023/01/27 08:05:05;;;;;;;13.18;7.95;;;5.00;99.90;;;;;;5054790;28;20266;-77
2023/01/27 08:07:38;;;;;;;16.25;8.82;;;5.10;99.90;;;;;;5054733;28;20228;-76
2023/01/27 08:10:09;;;;;;;11.77;7.78;;;5.10;99.90;;;;;;5054671;28;20217;-76
2023/01/27 08:12:42;;;;;;;14.23;8.40;;;5.10;99.90;;;;;;5055065;28;20231;-75
2023/01/27 08:15:12;;;;;;;11.75;7.45;;;5.20;99.90;;;;;;5062991;28;20560;-78
2023/01/27 08:17:44;;;;;;;12.55;7.82;;;5.20;99.90;;;;;;5056867;28;20232;-79
2023/01/27 08:20:17;;;;;;;13.15;8.32;;;5.30;99.90;;;;;;5054990;28;20227;-77
2023/01/27 08:22:54;;;;;;;12.77;8.35;;;5.30;99.90;;;;;;5055433;28;20670;-77
2023/01/27 08:31:32;;;;;;;14.15;7.28;;;5.40;99.90;;;;;;5159237;22;20332;-77
2023/01/27 08:34:04;;;;;;;9.60;6.85;;;5.50;99.90;;;;;;4941456;28;20362;-78
2023/01/27 08:36:36;;;;;;;7.97;6.90;;;5.50;99.90;;;;;;4954941;28;20311;-79
2023/01/27 08:39:07;;;;;;;6.90;5.80;;;5.50;99.90;;;;;;4955420;28;20315;-78
2023/01/27 08:41:37;;;;;;;12.85;6.80;;;5.50;99.90;;;;;;4955479;28;20220;-76
2023/01/27 08:44:09;;;;;;;8.80;7.13;;;5.60;99.90;;;;;;4954203;28;20294;-77
2023/01/27 08:46:40;;;;;;;8.48;6.47;;;5.60;99.90;;;;;;4954872;28;20681;-77
2023/01/27 08:49:19;;;;;;;8.75;5.72;;;5.60;99.90;;;;;;4954257;28;20232;-79
2023/01/27 08:51:54;;;;;;;9.07;6.65;;;5.70;99.90;;;;;;4955378;28;20263;-77
2023/01/27 08:54:25;;;;;;;8.13;5.50;;;5.70;99.90;;;;;;4954284;28;20296;-76
2023/01/27 08:56:55;;;;;;;7.93;7.00;;;5.70;99.90;;;;;;4954704;28;20228;-77
2023/01/27 08:59:26;;;;;;;7.95;6.72;;;5.80;99.90;;;;;;4954093;28;20311;-77
2023/01/27 09:01:55;;;;;;;6.07;5.32;;;5.80;99.90;;;;;;4943769;28;20266;-79
2023/01/27 09:04:29;;;;;;;9.20;6.63;;;5.80;99.90;;;;;;4956459;28;20294;-79
2023/01/27 09:07:01;;;;;;;7.05;5.63;;;5.80;99.90;;;;;;4954821;28;20666;-77
2023/01/27 09:09:32;;;;;;;10.35;6.80;;;5.80;99.90;;;;;;4954829;28;20239;-79
2023/01/27 09:12:02;;;;;;;9.48;6.20;;;5.90;99.90;;;;;;4954193;28;20258;-75
2023/01/27 09:14:32;;;;;;;8.48;6.10;;;6.00;99.90;;;;;;4955266;28;20299;-75
2023/01/27 09:17:04;;;;;;;6.20;4.90;;;6.00;99.90;;;;;;4958330;28;20228;-75
2023/01/27 09:19:33;;;;;;;5.97;5.15;;;6.00;99.90;;;;;;4958979;28;20297;-78
2023/01/27 09:22:06;;;;;;;8.88;5.80;;;6.10;99.90;;;;;;4954458;28;20251;-79
2023/01/27 09:24:43;;;;;;;5.78;4.95;;;6.00;99.90;;;;;;4961044;28;20250;-78
2023/01/27 09:27:13;;;;;;;6.97;6.28;;;6.10;99.90;;;;;;4955117;28;20235;-78
2023/01/27 09:29:43;;;;;;;7.43;5.57;;;6.10;99.90;;;;;;4956242;28;20297;-76
2023/01/27 09:32:13;;;;;;;6.47;5.20;;;6.10;99.90;;;;;;4954182;28;20259;-77
2023/01/27 09:34:42;;;;;;;7.05;5.60;;;6.10;99.90;;;;;;4953260;28;20297;-80
2023/01/27 09:37:17;;;;;;;9.85;5.40;;;6.10;99.90;;;;;;4955267;28;20224;-79
2023/01/27 09:39:58;;;;;;;7.65;5.50;;;6.10;99.90;;;;;;4953365;28;20228;-79
2023/01/27 09:42:58;;;;;;;7.80;5.25;;;6.20;99.90;;;;;;4953749;28;20282;-79
2023/01/27 09:45:56;;;;;;;6.65;6.03;;;6.20;99.90;;;;;;4953167;28;20228;-79
2023/01/27 09:48:40;;;;;;;12.80;10.38;;;6.10;99.90;;;;;;4953704;28;20298;-79
2023/01/27 09:51:18;;;;;;;7.97;7.18;;;6.10;99.90;;;;;;4953904;28;20310;-76
2023/01/27 09:57:33;;;;;;;6.03;5.45;;;6.00;99.90;;;;;;4957915;28;20224;-79
2023/01/27 10:00:29;;;;;;;6.97;5.28;;;6.00;99.90;;;;;;4953480;28;20263;-78
2023/01/27 10:03:25;;;;;;;8.68;6.32;;;5.90;99.90;;;;;;4953316;28;20247;-79
2023/01/27 10:06:18;;;;;;;6.72;6.05;;;6.00;99.90;;;;;;4952230;28;20321;-77
2023/01/27 10:09:05;;;;;;;7.10;6.40;;;6.00;99.90;;;;;;4952266;28;20255;-80
2023/01/27 10:11:51;;;;;;;8.25;7.45;;;6.00;99.90;;;;;;4952970;28;20677;-79
2023/01/27 10:17:57;;;;;;;8.30;5.78;;;6.00;99.90;;;;;;4945050;28;20310;-77
2023/01/27 10:20:35;;;;;;;6.55;5.95;;;6.00;99.90;;;;;;4972789;28;20262;-77
2023/01/27 10:23:34;;;;;;;10.13;6.45;;;6.00;99.90;;;;;;4938270;28;20631;-77
2023/01/27 10:26:19;;;;;;;7.82;6.15;;;6.00;99.90;;;;;;4979015;28;20323;-80
2023/01/27 10:29:03;;;;;;;5.65;4.80;;;6.10;99.90;;;;;;4954699;28;20648;-79
2023/01/27 10:31:40;;;;;;;5.68;5.18;;;6.00;99.90;;;;;;4954004;28;20243;-79
2023/01/27 10:34:22;;;;;;;5.25;4.85;;;6.00;99.90;;;;;;4953842;28;20224;-79
2023/01/27 10:37:03;;;;;;;8.93;5.43;;;6.00;99.90;;;;;;4954495;28;20244;-76
2023/01/27 10:39:45;;;;;;;6.20;5.10;;;6.00;99.90;;;;;;4952661;28;20703;-77
2023/01/27 10:42:37;;;;;;;5.13;4.65;;;6.00;99.90;;;;;;4979369;28;20231;-79
2023/01/27 10:45:22;;;;;;;5.78;5.07;;;6.00;99.90;;;;;;4946714;28;20236;-76
2023/01/27 10:48:17;;;;;;;6.72;5.35;;;6.00;99.90;;;;;;4953506;28;20228;-80
2023/01/27 10:50:54;;;;;;;8.00;4.72;;;6.00;99.90;;;;;;4946279;28;20552;-77
2023/01/27 10:53:32;;;;;;;4.60;4.20;;;6.10;99.90;;;;;;4983625;28;20585;-77
2023/01/27 10:56:10;;;;;;;5.13;4.68;;;6.10;99.90;;;;;;5042855;28;20274;-77
2023/01/27 10:58:54;;;;;;;6.80;5.85;;;6.20;99.90;;;;;;5053418;28;20299;-80
2023/01/27 11:01:34;;;;;;;11.02;6.10;;;6.20;99.90;;;;;;5053219;28;20571;-79
2023/01/27 11:04:09;;;;;;;7.97;6.45;;;6.20;99.90;;;;;;5051470;28;20301;-77
2023/01/27 11:06:47;;;;;;;7.28;5.43;;;6.30;99.90;;;;;;5053104;28;20220;-77
2023/01/27 11:09:26;;;;;;;10.65;4.68;;;6.20;99.90;;;;;;5052755;28;20224;-77
2023/01/27 11:12:00;;;;;;;6.50;4.88;;;6.20;99.90;;;;;;5054355;28;20624;-76
2023/01/27 11:14:33;;;;;;;5.55;5.05;;;6.20;99.90;;;;;;5052685;28;20228;-79
2023/01/27 11:17:15;;;;;;;5.53;5.03;;;6.30;99.90;;;;;;5052371;28;20227;-77
2023/01/27 11:19:53;;;;;;;7.38;5.32;;;6.30;99.90;;;;;;5051832;28;20228;-78
2023/01/27 11:22:26;;;;;;;10.75;4.75;;;6.40;99.90;;;;;;5054889;28;20216;-79
2023/01/27 11:25:08;;;;;;;5.32;4.72;;;6.40;99.90;;;;;;5052611;28;20299;-79
2023/01/27 11:27:56;;;;;;;6.18;4.80;;;6.40;99.90;;;;;;5053656;28;20310;-77
2023/01/27 11:30:34;;;;;;;5.20;4.10;;;6.50;99.90;;;;;;4947755;28;20239;-76
2023/01/27 11:33:17;;;;;;;7.88;5.00;;;6.50;99.90;;;;;;4991528;28;20227;-81
2023/01/27 11:35:46;;;;;;;5.30;4.80;;;6.40;99.90;;;;;;4954741;28;20228;-77
2023/01/27 11:38:26;;;;;;;5.38;4.88;;;6.50;99.90;;;;;;4955500;28;20278;-80
2023/01/27 11:40:56;;;;;;;7.55;5.43;;;6.50;99.90;;;;;;4955711;28;20219;-77
2023/01/27 11:43:29;;;;;;;7.93;6.38;;;6.60;99.90;;;;;;4954952;28;20232;-77
2023/01/27 11:46:04;;;;;;;8.23;5.72;;;6.50;99.90;;;;;;4955050;28;20235;-80
2023/01/27 11:48:41;;;;;;;7.78;5.00;;;6.50;99.90;;;;;;4949395;28;20301;-80
2023/01/27 11:51:21;;;;;;;5.65;5.15;;;6.50;99.90;;;;;;4946305;28;20235;-79
2023/01/27 11:53:59;;;;;;;6.40;5.80;;;6.40;99.90;;;;;;4956139;28;20258;-76
2023/01/27 11:56:32;;;;;;;9.75;5.60;;;6.40;99.90;;;;;;4955268;28;20297;-79
2023/01/27 11:59:08;;;;;;;7.15;4.55;;;6.50;99.90;;;;;;4955930;28;20689;-79
2023/01/27 12:01:48;;;;;;;6.60;4.43;;;6.40;99.90;;;;;;4955327;28;20227;-76
2023/01/27 12:04:28;;;;;;;5.20;4.70;;;6.50;99.90;;;;;;4978840;28;20542;-76
2023/01/27 12:07:03;;;;;;;5.10;4.70;;;6.40;99.90;;;;;;4954074;28;20258;-77
2023/01/27 12:09:35;;;;;;;8.88;4.40;;;6.40;99.90;;;;;;4954618;28;20220;-79
2023/01/27 12:12:26;;;;;;;6.43;5.82;;;6.40;99.90;;;;;;4939384;28;20274;-79
2023/01/27 12:15:01;;;;;;;6.25;4.35;;;6.40;99.90;;;;;;5045546;28;20224;-79
2023/01/27 12:17:40;;;;;;;8.63;5.80;;;6.40;99.90;;;;;;5033049;28;20240;-77
2023/01/27 12:20:28;;;;;;;9.65;5.50;;;6.40;99.90;;;;;;5055393;28;20255;-78
2023/01/27 12:23:02;;;;;;;5.85;5.10;;;6.40;99.90;;;;;;5054757;28;20690;-79
2023/01/27 12:25:45;;;;;;;7.32;5.88;;;6.40;99.90;;;;;;5056806;28;20224;-78
2023/01/27 12:28:27;;;;;;;5.45;4.88;;;6.50;99.90;;;;;;5057321;28;20228;-79
2023/01/27 12:31:05;;;;;;;7.13;5.25;;;6.50;99.90;;;;;;5056473;28;20240;-77
2023/01/27 12:33:37;;;;;;;8.32;4.72;;;6.50;99.90;;;;;;5054129;28;20220;-78
2023/01/27 12:36:16;;;;;;;6.90;5.72;;;6.50;99.90;;;;;;4946525;28;20239;-79
2023/01/27 12:38:54;;;;;;;6.53;5.70;;;6.40;99.90;;;;;;4957856;28;20306;-80
2023/01/27 12:41:27;;;;;;;8.98;4.57;;;6.40;99.90;;;;;;4955207;28;20229;-79
2023/01/27 12:44:00;;;;;;;11.43;4.80;;;6.20;99.90;;;;;;4964996;28;20297;-80
2023/01/27 12:46:31;;;;;;;10.02;4.63;;;6.20;99.90;;;;;;4965370;28;20229;-80
2023/01/27 12:49:05;;;;;;;6.82;5.30;;;6.20;99.90;;;;;;4960815;28;20405;-79
2023/01/27 12:51:47;;;;;;;8.95;5.78;;;6.20;99.90;;;;;;4961289;28;20307;-80
2023/01/27 12:54:20;;;;;;;7.78;5.38;;;6.20;99.90;;;;;;4953548;28;20238;-80
2023/01/27 12:56:52;;;;;;;6.75;4.40;;;6.20;99.90;;;;;;4955300;28;20231;-77
2023/01/27 12:59:24;;;;;;;4.93;3.88;;;6.30;99.90;;;;;;4952879;28;20236;-80
2023/01/27 13:02:05;;;;;;;7.60;4.60;;;6.30;99.90;;;;;;4955605;28;20254;-78
2023/01/27 13:04:39;;;;;;;5.95;3.78;;;6.30;99.90;;;;;;4954031;28;20236;-80
2023/01/27 13:07:28;;;;;;;6.82;5.22;;;6.30;99.90;;;;;;4954522;28;20224;-80
2023/01/27 13:10:03;;;;;;;7.32;3.78;;;6.30;99.90;;;;;;4954671;28;20270;-80
2023/01/27 13:12:49;;;;;;;6.70;4.10;;;6.30;99.90;;;;;;4953770;28;20308;-77
2023/01/27 13:15:23;;;;;;;7.78;4.05;;;6.30;99.90;;;;;;4952785;28;20224;-77
2023/01/27 13:17:54;;;;;;;6.03;4.13;;;6.30;99.90;;;;;;4953651;28;20573;-80
2023/01/27 13:20:29;;;;;;;4.80;4.40;;;6.30;99.90;;;;;;4949974;28;20240;-77
2023/01/27 13:23:06;;;;;;;8.77;4.20;;;6.30;99.90;;;;;;4953332;28;20545;-77
2023/01/27 13:25:46;;;;;;;7.22;3.70;;;6.30;99.90;;;;;;4955720;28;20224;-80
2023/01/27 13:28:23;;;;;;;5.28;3.30;;;6.30;99.90;;;;;;4953898;28;20252;-77
2023/01/27 13:30:58;;;;;;;13.38;3.97;;;6.30;99.90;;;;;;4952790;28;20227;-79
2023/01/27 13:33:41;;;;;;;5.35;3.60;;;6.20;99.90;;;;;;4954299;28;20349;-79
2023/01/27 13:36:22;;;;;;;5.90;3.22;;;6.20;99.90;;;;;;4955373;28;20223;-79
2023/01/27 13:38:59;;;;;;;5.07;3.40;;;6.30;99.90;;;;;;4946192;28;20684;-80
2023/01/27 13:41:44;;;;;;;7.22;3.85;;;6.30;99.90;;;;;;4946380;28;20224;-79
2023/01/27 13:44:51;;;;;;;3.47;3.15;;;6.30;99.90;;;;;;4944277;28;20224;-79
2023/01/27 13:47:26;;;;;;;8.25;3.33;;;6.30;99.90;;;;;;4954539;28;20567;-79
2023/01/27 13:50:03;;;;;;;4.88;3.22;;;6.20;99.90;;;;;;4948050;28;20228;-79
2023/01/27 13:52:46;;;;;;;4.45;3.25;;;6.20;99.90;;;;;;4944919;28;20226;-79
2023/01/27 13:55:49;;;;;;;;;;;;;;;;;;;;;
2023/01/27 13:58:29;;;;;;;5.70;2.65;;;6.30;99.90;;;;;;4958175;28;20241;-80
2023/01/27 14:01:06;;;;;;;8.32;4.05;;;6.30;99.90;;;;;;5053242;28;20654;-80
2023/01/27 14:03:51;;;;;;;6.57;4.55;;;6.30;99.90;;;;;;5043229;28;20236;-80
2023/01/27 14:06:34;;;;;;;4.55;3.40;;;6.30;99.90;;;;;;5052974;28;20235;-80
2023/01/27 14:09:30;;;;;;;9.27;4.45;;;6.30;99.90;;;;;;5052264;28;20312;-78
2023/01/27 14:12:11;;;;;;;9.20;3.92;;;6.30;99.90;;;;;;5052241;28;20250;-77
2023/01/27 14:14:53;;;;;;;8.43;3.55;;;6.40;99.90;;;;;;5053255;28;20251;-76
2023/01/27 14:17:41;;;;;;;4.85;4.20;;;6.40;99.90;;;;;;5053745;28;20221;-80